sensor_id;sensor_type;location;lat;lon;timestamp;P1;durP1;ratioP1;P2;durP2;ratioP2
38615;SDS011;24370;51.986;4.666;2024-01-30T00:01:34;16.93;;;8.90;;
38615;SDS011;24370;51.986;4.666;2024-01-30T00:03:59;22.80;;;10.00;;
38615;SDS011;24370;51.986;4.666;2024-01-30T00:06:25;16.70;;;9.50;;
38615;SDS011;24370;51.986;4.666;2024-01-30T00:08:50;18.37;;;9.20;;
38615;SDS011;24370;51.986;4.666;2024-01-30T00:11:16;18.47;;;10.10;;
38615;SDS011;24370;51.986;4.666;2024-01-30T00:13:41;17.27;;;10.00;;
38615;SDS011;24370;51.986;4.666;2024-01-30T00:16:07;18.60;;;8.97;;
38615;SDS011;24370;51.986;4.666;2024-01-30T00:18:34;18.63;;;8.83;;
38615;SDS011;24370;51.986;4.666;2024-01-30T00:20:59;16.27;;;9.00;;
38615;SDS011;24370;51.986;4.666;2024-01-30T00:23:25;18.40;;;9.13;;
38615;SDS011;24370;51.986;4.666;2024-01-30T00:25:50;19.13;;;8.83;;
38615;SDS011;24370;51.986;4.666;2024-01-30T00:28:15;19.03;;;9.17;;
38615;SDS011;24370;51.986;4.666;2024-01-30T00:30:41;18.73;;;8.87;;
38615;SDS011;24370;51.986;4.666;2024-01-30T00:33:06;13.90;;;7.53;;
38615;SDS011;24370;51.986;4.666;2024-01-30T00:35:33;20.87;;;9.00;;
38615;SDS011;24370;51.986;4.666;2024-01-30T00:37:58;17.77;;;8.90;;
38615;SDS011;24370;51.986;4.666;2024-01-30T00:40:23;16.60;;;8.37;;
38615;SDS011;24370;51.986;4.666;2024-01-30T00:42:49;19.97;;;8.43;;
38615;SDS011;24370;51.986;4.666;2024-01-30T00:45:14;20.93;;;8.83;;
38615;SDS011;24370;51.986;4.666;2024-01-30T00:47:41;18.43;;;9.03;;
38615;SDS011;24370;51.986;4.666;2024-01-30T00:50:06;14.50;;;8.00;;
38615;SDS011;24370;51.986;4.666;2024-01-30T00:52:32;16.37;;;8.57;;
38615;SDS011;24370;51.986;4.666;2024-01-30T00:54:58;15.23;;;8.07;;
38615;SDS011;24370;51.986;4.666;2024-01-30T00:57:24;17.13;;;8.57;;
38615;SDS011;24370;51.986;4.666;2024-01-30T00:59:49;15.83;;;8.53;;
38615;SDS011;24370;51.986;4.666;2024-01-30T01:02:15;14.97;;;8.17;;
38615;SDS011;24370;51.986;4.666;2024-01-30T01:04:42;17.53;;;8.57;;
38615;SDS011;24370;51.986;4.666;2024-01-30T01:07:07;19.67;;;9.00;;
38615;SDS011;24370;51.986;4.666;2024-01-30T01:09:33;19.67;;;8.77;;
38615;SDS011;24370;51.986;4.666;2024-01-30T01:11:58;16.23;;;8.17;;
38615;SDS011;24370;51.986;4.666;2024-01-30T01:14:24;16.67;;;9.23;;
38615;SDS011;24370;51.986;4.666;2024-01-30T01:16:49;13.83;;;7.57;;
38615;SDS011;24370;51.986;4.666;2024-01-30T01:19:14;13.90;;;7.33;;
38615;SDS011;24370;51.986;4.666;2024-01-30T01:21:40;16.13;;;8.07;;
38615;SDS011;24370;51.986;4.666;2024-01-30T01:24:05;15.00;;;8.23;;
38615;SDS011;24370;51.986;4.666;2024-01-30T01:26:30;17.93;;;8.40;;
38615;SDS011;24370;51.986;4.666;2024-01-30T01:28:56;14.20;;;7.43;;
38615;SDS011;24370;51.986;4.666;2024-01-30T01:31:21;15.57;;;7.50;;
38615;SDS011;24370;51.986;4.666;2024-01-30T01:33:49;13.63;;;7.33;;
38615;SDS011;24370;51.986;4.666;2024-01-30T01:36:15;11.83;;;7.33;;
38615;SDS011;24370;51.986;4.666;2024-01-30T01:38:40;13.27;;;7.37;;
38615;SDS011;24370;51.986;4.666;2024-01-30T01:41:05;14.10;;;7.27;;
38615;SDS011;24370;51.986;4.666;2024-01-30T01:43:31;15.83;;;8.53;;
38615;SDS011;24370;51.986;4.666;2024-01-30T01:45:56;13.77;;;7.57;;
38615;SDS011;24370;51.986;4.666;2024-01-30T01:48:22;17.17;;;7.27;;
38615;SDS011;24370;51.986;4.666;2024-01-30T01:50:47;14.97;;;7.50;;
38615;SDS011;24370;51.986;4.666;2024-01-30T01:53:13;16.80;;;7.63;;
38615;SDS011;24370;51.986;4.666;2024-01-30T01:55:40;13.60;;;6.50;;
38615;SDS011;24370;51.986;4.666;2024-01-30T01:58:05;17.20;;;8.20;;
38615;SDS011;24370;51.986;4.666;2024-01-30T02:00:33;16.40;;;7.67;;
38615;SDS011;24370;51.986;4.666;2024-01-30T02:03:01;17.20;;;7.90;;
38615;SDS011;24370;51.986;4.666;2024-01-30T02:05:29;15.97;;;7.77;;
38615;SDS011;24370;51.986;4.666;2024-01-30T02:07:55;16.93;;;8.63;;
38615;SDS011;24370;51.986;4.666;2024-01-30T02:10:21;14.83;;;7.03;;
38615;SDS011;24370;51.986;4.666;2024-01-30T02:12:46;11.67;;;6.77;;
38615;SDS011;24370;51.986;4.666;2024-01-30T02:15:13;17.53;;;7.57;;
38615;SDS011;24370;51.986;4.666;2024-01-30T02:17:39;13.47;;;6.63;;
38615;SDS011;24370;51.986;4.666;2024-01-30T02:20:04;14.07;;;7.67;;
38615;SDS011;24370;51.986;4.666;2024-01-30T02:22:30;13.53;;;6.93;;
38615;SDS011;24370;51.986;4.666;2024-01-30T02:24:59;14.47;;;6.73;;
38615;SDS011;24370;51.986;4.666;2024-01-30T02:27:24;16.63;;;7.33;;
38615;SDS011;24370;51.986;4.666;2024-01-30T02:29:50;12.17;;;6.60;;
38615;SDS011;24370;51.986;4.666;2024-01-30T02:32:15;14.33;;;7.30;;
38615;SDS011;24370;51.986;4.666;2024-01-30T02:34:41;14.30;;;6.80;;
38615;SDS011;24370;51.986;4.666;2024-01-30T02:37:06;15.00;;;7.40;;
38615;SDS011;24370;51.986;4.666;2024-01-30T02:39:31;13.10;;;6.70;;
38615;SDS011;24370;51.986;4.666;2024-01-30T02:41:57;11.03;;;6.73;;
38615;SDS011;24370;51.986;4.666;2024-01-30T02:44:22;15.33;;;7.50;;
38615;SDS011;24370;51.986;4.666;2024-01-30T02:46:48;17.40;;;6.77;;
38615;SDS011;24370;51.986;4.666;2024-01-30T02:49:13;11.20;;;6.53;;
38615;SDS011;24370;51.986;4.666;2024-01-30T02:51:38;14.53;;;7.37;;
38615;SDS011;24370;51.986;4.666;2024-01-30T02:54:04;12.40;;;6.23;;
38615;SDS011;24370;51.986;4.666;2024-01-30T02:56:29;13.33;;;6.43;;
38615;SDS011;24370;51.986;4.666;2024-01-30T02:58:54;13.77;;;6.53;;
38615;SDS011;24370;51.986;4.666;2024-01-30T03:01:20;12.10;;;6.27;;
38615;SDS011;24370;51.986;4.666;2024-01-30T03:03:45;12.70;;;6.87;;
38615;SDS011;24370;51.986;4.666;2024-01-30T03:06:10;12.10;;;7.07;;
38615;SDS011;24370;51.986;4.666;2024-01-30T03:08:36;12.00;;;6.30;;
38615;SDS011;24370;51.986;4.666;2024-01-30T03:11:02;12.90;;;5.93;;
38615;SDS011;24370;51.986;4.666;2024-01-30T03:13:27;11.77;;;6.40;;
38615;SDS011;24370;51.986;4.666;2024-01-30T03:15:56;11.33;;;5.80;;
38615;SDS011;24370;51.986;4.666;2024-01-30T03:18:22;13.90;;;7.23;;
38615;SDS011;24370;51.986;4.666;2024-01-30T03:20:47;12.87;;;6.57;;
38615;SDS011;24370;51.986;4.666;2024-01-30T03:23:12;13.03;;;6.93;;
38615;SDS011;24370;51.986;4.666;2024-01-30T03:25:38;17.03;;;6.60;;
38615;SDS011;24370;51.986;4.666;2024-01-30T03:28:03;13.90;;;6.60;;
38615;SDS011;24370;51.986;4.666;2024-01-30T03:30:29;13.80;;;6.10;;
38615;SDS011;24370;51.986;4.666;2024-01-30T03:32:54;11.80;;;6.23;;
38615;SDS011;24370;51.986;4.666;2024-01-30T03:35:20;14.30;;;7.27;;
38615;SDS011;24370;51.986;4.666;2024-01-30T03:37:45;16.73;;;7.37;;
38615;SDS011;24370;51.986;4.666;2024-01-30T03:40:10;12.10;;;6.87;;
38615;SDS011;24370;51.986;4.666;2024-01-30T03:42:36;12.67;;;6.50;;
38615;SDS011;24370;51.986;4.666;2024-01-30T03:45:02;13.07;;;6.30;;
38615;SDS011;24370;51.986;4.666;2024-01-30T03:47:27;15.03;;;6.87;;
38615;SDS011;24370;51.986;4.666;2024-01-30T03:49:52;12.03;;;5.97;;
38615;SDS011;24370;51.986;4.666;2024-01-30T03:52:18;12.73;;;6.73;;
38615;SDS011;24370;51.986;4.666;2024-01-30T03:54:43;11.40;;;6.57;;
38615;SDS011;24370;51.986;4.666;2024-01-30T03:57:08;12.60;;;6.67;;
38615;SDS011;24370;51.986;4.666;2024-01-30T03:59:34;16.97;;;6.50;;
38615;SDS011;24370;51.986;4.666;2024-01-30T04:01:59;14.57;;;6.67;;
38615;SDS011;24370;51.986;4.666;2024-01-30T04:04:25;12.57;;;7.07;;
38615;SDS011;24370;51.986;4.666;2024-01-30T04:06:50;10.50;;;6.27;;
38615;SDS011;24370;51.986;4.666;2024-01-30T04:09:16;13.33;;;6.70;;
38615;SDS011;24370;51.986;4.666;2024-01-30T04:11:41;13.77;;;6.80;;
38615;SDS011;24370;51.986;4.666;2024-01-30T04:14:07;15.03;;;6.47;;
38615;SDS011;24370;51.986;4.666;2024-01-30T04:16:32;15.10;;;6.03;;
38615;SDS011;24370;51.986;4.666;2024-01-30T04:18:58;10.33;;;6.40;;
38615;SDS011;24370;51.986;4.666;2024-01-30T04:21:23;10.23;;;5.80;;
38615;SDS011;24370;51.986;4.666;2024-01-30T04:23:50;12.93;;;6.17;;
38615;SDS011;24370;51.986;4.666;2024-01-30T04:26:16;13.33;;;6.37;;
38615;SDS011;24370;51.986;4.666;2024-01-30T04:28:42;10.80;;;6.10;;
38615;SDS011;24370;51.986;4.666;2024-01-30T04:31:07;13.43;;;6.50;;
38615;SDS011;24370;51.986;4.666;2024-01-30T04:33:33;12.07;;;5.47;;
38615;SDS011;24370;51.986;4.666;2024-01-30T04:35:58;10.20;;;6.17;;
38615;SDS011;24370;51.986;4.666;2024-01-30T04:38:23;11.67;;;6.33;;
38615;SDS011;24370;51.986;4.666;2024-01-30T04:40:49;12.77;;;5.90;;
38615;SDS011;24370;51.986;4.666;2024-01-30T04:43:14;12.73;;;6.93;;
38615;SDS011;24370;51.986;4.666;2024-01-30T04:45:40;13.73;;;6.30;;
38615;SDS011;24370;51.986;4.666;2024-01-30T04:48:06;12.57;;;6.33;;
38615;SDS011;24370;51.986;4.666;2024-01-30T04:50:31;21.47;;;7.87;;
38615;SDS011;24370;51.986;4.666;2024-01-30T04:52:57;13.13;;;6.10;;
38615;SDS011;24370;51.986;4.666;2024-01-30T04:55:22;14.70;;;6.90;;
38615;SDS011;24370;51.986;4.666;2024-01-30T04:57:48;12.57;;;6.23;;
38615;SDS011;24370;51.986;4.666;2024-01-30T05:00:13;13.10;;;5.93;;
38615;SDS011;24370;51.986;4.666;2024-01-30T05:02:39;14.33;;;6.73;;
38615;SDS011;24370;51.986;4.666;2024-01-30T05:05:04;12.73;;;6.23;;
38615;SDS011;24370;51.986;4.666;2024-01-30T05:07:30;11.03;;;5.60;;
38615;SDS011;24370;51.986;4.666;2024-01-30T05:09:55;13.87;;;5.97;;
38615;SDS011;24370;51.986;4.666;2024-01-30T05:12:21;11.77;;;6.30;;
38615;SDS011;24370;51.986;4.666;2024-01-30T05:14:46;11.20;;;5.80;;
38615;SDS011;24370;51.986;4.666;2024-01-30T05:17:11;12.33;;;6.57;;
38615;SDS011;24370;51.986;4.666;2024-01-30T05:19:37;12.07;;;6.53;;
38615;SDS011;24370;51.986;4.666;2024-01-30T05:22:03;12.60;;;5.93;;
38615;SDS011;24370;51.986;4.666;2024-01-30T05:24:29;11.07;;;5.77;;
38615;SDS011;24370;51.986;4.666;2024-01-30T05:26:54;14.67;;;6.10;;
38615;SDS011;24370;51.986;4.666;2024-01-30T05:29:19;10.13;;;6.60;;
38615;SDS011;24370;51.986;4.666;2024-01-30T05:31:45;14.23;;;6.60;;
38615;SDS011;24370;51.986;4.666;2024-01-30T05:34:10;10.63;;;6.10;;
38615;SDS011;24370;51.986;4.666;2024-01-30T05:36:36;10.80;;;6.00;;
38615;SDS011;24370;51.986;4.666;2024-01-30T05:39:01;12.27;;;6.30;;
38615;SDS011;24370;51.986;4.666;2024-01-30T05:41:26;12.03;;;5.97;;
38615;SDS011;24370;51.986;4.666;2024-01-30T05:43:52;17.33;;;7.23;;
38615;SDS011;24370;51.986;4.666;2024-01-30T05:46:18;12.07;;;6.27;;
38615;SDS011;24370;51.986;4.666;2024-01-30T05:48:43;9.57;;;5.77;;
38615;SDS011;24370;51.986;4.666;2024-01-30T05:51:09;16.37;;;6.30;;
38615;SDS011;24370;51.986;4.666;2024-01-30T05:53:34;9.77;;;5.87;;
38615;SDS011;24370;51.986;4.666;2024-01-30T05:56:02;12.23;;;6.37;;
38615;SDS011;24370;51.986;4.666;2024-01-30T05:58:29;15.13;;;6.10;;
38615;SDS011;24370;51.986;4.666;2024-01-30T06:00:56;11.70;;;6.47;;
38615;SDS011;24370;51.986;4.666;2024-01-30T06:03:22;10.17;;;5.83;;
38615;SDS011;24370;51.986;4.666;2024-01-30T06:05:47;15.70;;;6.47;;
38615;SDS011;24370;51.986;4.666;2024-01-30T06:08:13;12.70;;;6.80;;
38615;SDS011;24370;51.986;4.666;2024-01-30T06:10:38;11.37;;;6.10;;
38615;SDS011;24370;51.986;4.666;2024-01-30T06:13:04;12.30;;;6.40;;
38615;SDS011;24370;51.986;4.666;2024-01-30T06:15:29;13.90;;;6.40;;
38615;SDS011;24370;51.986;4.666;2024-01-30T06:17:55;17.87;;;6.37;;
38615;SDS011;24370;51.986;4.666;2024-01-30T06:20:20;10.40;;;5.73;;
38615;SDS011;24370;51.986;4.666;2024-01-30T06:22:46;8.77;;;4.97;;
38615;SDS011;24370;51.986;4.666;2024-01-30T06:25:11;17.17;;;6.10;;
38615;SDS011;24370;51.986;4.666;2024-01-30T06:27:37;11.90;;;6.70;;
38615;SDS011;24370;51.986;4.666;2024-01-30T06:30:03;12.00;;;6.30;;
38615;SDS011;24370;51.986;4.666;2024-01-30T06:32:29;9.73;;;5.30;;
38615;SDS011;24370;51.986;4.666;2024-01-30T06:34:59;10.77;;;5.63;;
38615;SDS011;24370;51.986;4.666;2024-01-30T06:37:24;11.37;;;6.43;;
38615;SDS011;24370;51.986;4.666;2024-01-30T06:39:50;18.27;;;6.83;;
38615;SDS011;24370;51.986;4.666;2024-01-30T06:42:15;12.17;;;6.00;;
38615;SDS011;24370;51.986;4.666;2024-01-30T06:44:41;12.87;;;6.20;;
38615;SDS011;24370;51.986;4.666;2024-01-30T06:47:06;12.43;;;5.73;;
38615;SDS011;24370;51.986;4.666;2024-01-30T06:49:31;10.70;;;5.70;;
38615;SDS011;24370;51.986;4.666;2024-01-30T06:51:58;10.37;;;6.17;;
38615;SDS011;24370;51.986;4.666;2024-01-30T06:54:23;12.50;;;6.10;;
38615;SDS011;24370;51.986;4.666;2024-01-30T06:56:49;10.93;;;5.90;;
38615;SDS011;24370;51.986;4.666;2024-01-30T06:59:14;10.87;;;6.27;;
38615;SDS011;24370;51.986;4.666;2024-01-30T07:01:40;15.50;;;6.67;;
38615;SDS011;24370;51.986;4.666;2024-01-30T07:04:05;14.60;;;6.47;;
38615;SDS011;24370;51.986;4.666;2024-01-30T07:06:30;13.33;;;6.73;;
38615;SDS011;24370;51.986;4.666;2024-01-30T07:08:56;12.73;;;6.77;;
38615;SDS011;24370;51.986;4.666;2024-01-30T07:11:21;11.23;;;5.43;;
38615;SDS011;24370;51.986;4.666;2024-01-30T07:13:48;11.67;;;5.80;;
38615;SDS011;24370;51.986;4.666;2024-01-30T07:16:15;18.90;;;6.03;;
38615;SDS011;24370;51.986;4.666;2024-01-30T07:18:40;15.43;;;6.37;;
38615;SDS011;24370;51.986;4.666;2024-01-30T07:21:06;9.60;;;5.37;;
38615;SDS011;24370;51.986;4.666;2024-01-30T07:23:31;15.53;;;6.33;;
38615;SDS011;24370;51.986;4.666;2024-01-30T07:25:59;11.80;;;6.10;;
38615;SDS011;24370;51.986;4.666;2024-01-30T07:28:24;11.10;;;6.00;;
38615;SDS011;24370;51.986;4.666;2024-01-30T07:30:50;13.00;;;6.07;;
38615;SDS011;24370;51.986;4.666;2024-01-30T07:33:15;9.07;;;5.23;;
38615;SDS011;24370;51.986;4.666;2024-01-30T07:35:41;11.47;;;5.37;;
38615;SDS011;24370;51.986;4.666;2024-01-30T07:38:06;14.30;;;5.77;;
38615;SDS011;24370;51.986;4.666;2024-01-30T07:40:32;12.77;;;6.13;;
38615;SDS011;24370;51.986;4.666;2024-01-30T07:42:58;9.77;;;5.00;;
38615;SDS011;24370;51.986;4.666;2024-01-30T07:45:23;15.90;;;6.63;;
38615;SDS011;24370;51.986;4.666;2024-01-30T07:47:50;16.83;;;7.80;;
38615;SDS011;24370;51.986;4.666;2024-01-30T07:50:16;10.77;;;6.43;;
38615;SDS011;24370;51.986;4.666;2024-01-30T07:52:42;13.00;;;6.03;;
38615;SDS011;24370;51.986;4.666;2024-01-30T07:55:08;10.67;;;5.93;;
38615;SDS011;24370;51.986;4.666;2024-01-30T07:57:34;13.10;;;5.10;;
38615;SDS011;24370;51.986;4.666;2024-01-30T08:00:00;12.27;;;5.37;;
38615;SDS011;24370;51.986;4.666;2024-01-30T08:02:26;10.40;;;5.30;;
38615;SDS011;24370;51.986;4.666;2024-01-30T08:04:51;10.00;;;4.93;;
38615;SDS011;24370;51.986;4.666;2024-01-30T08:07:17;8.67;;;4.80;;
38615;SDS011;24370;51.986;4.666;2024-01-30T08:09:42;7.80;;;5.10;;
38615;SDS011;24370;51.986;4.666;2024-01-30T08:12:08;11.63;;;5.97;;
38615;SDS011;24370;51.986;4.666;2024-01-30T08:14:34;12.33;;;5.67;;
38615;SDS011;24370;51.986;4.666;2024-01-30T08:16:59;9.73;;;5.17;;
38615;SDS011;24370;51.986;4.666;2024-01-30T08:19:24;14.47;;;5.60;;
38615;SDS011;24370;51.986;4.666;2024-01-30T08:21:50;9.67;;;5.20;;
38615;SDS011;24370;51.986;4.666;2024-01-30T08:24:15;16.27;;;5.70;;
38615;SDS011;24370;51.986;4.666;2024-01-30T08:26:41;9.33;;;4.90;;
38615;SDS011;24370;51.986;4.666;2024-01-30T08:29:06;10.70;;;5.47;;
38615;SDS011;24370;51.986;4.666;2024-01-30T08:31:31;9.70;;;5.07;;
38615;SDS011;24370;51.986;4.666;2024-01-30T08:33:57;10.77;;;4.20;;
38615;SDS011;24370;51.986;4.666;2024-01-30T08:36:22;10.67;;;5.13;;
38615;SDS011;24370;51.986;4.666;2024-01-30T08:38:48;9.50;;;4.63;;
38615;SDS011;24370;51.986;4.666;2024-01-30T08:41:14;25.33;;;5.80;;
38615;SDS011;24370;51.986;4.666;2024-01-30T08:43:39;11.53;;;5.60;;
38615;SDS011;24370;51.986;4.666;2024-01-30T08:46:04;11.80;;;4.33;;
38615;SDS011;24370;51.986;4.666;2024-01-30T08:48:30;12.33;;;4.67;;
38615;SDS011;24370;51.986;4.666;2024-01-30T08:50:55;13.97;;;5.33;;
38615;SDS011;24370;51.986;4.666;2024-01-30T08:53:21;10.23;;;5.60;;
38615;SDS011;24370;51.986;4.666;2024-01-30T08:55:47;19.93;;;6.23;;
38615;SDS011;24370;51.986;4.666;2024-01-30T08:58:12;13.13;;;5.23;;
38615;SDS011;24370;51.986;4.666;2024-01-30T09:00:37;9.83;;;4.77;;
38615;SDS011;24370;51.986;4.666;2024-01-30T09:03:03;12.73;;;5.27;;
38615;SDS011;24370;51.986;4.666;2024-01-30T09:05:29;14.17;;;5.20;;
38615;SDS011;24370;51.986;4.666;2024-01-30T09:07:54;9.47;;;4.40;;
38615;SDS011;24370;51.986;4.666;2024-01-30T09:10:20;8.37;;;4.93;;
38615;SDS011;24370;51.986;4.666;2024-01-30T09:12:46;16.17;;;5.50;;
38615;SDS011;24370;51.986;4.666;2024-01-30T09:15:11;9.30;;;5.17;;
38615;SDS011;24370;51.986;4.666;2024-01-30T09:17:37;9.37;;;4.83;;
38615;SDS011;24370;51.986;4.666;2024-01-30T09:20:02;14.67;;;5.00;;
38615;SDS011;24370;51.986;4.666;2024-01-30T09:22:31;10.47;;;4.33;;
38615;SDS011;24370;51.986;4.666;2024-01-30T09:24:57;9.90;;;4.87;;
38615;SDS011;24370;51.986;4.666;2024-01-30T09:27:22;14.77;;;4.80;;
38615;SDS011;24370;51.986;4.666;2024-01-30T09:29:48;10.57;;;4.53;;
38615;SDS011;24370;51.986;4.666;2024-01-30T09:32:13;10.10;;;4.53;;
38615;SDS011;24370;51.986;4.666;2024-01-30T09:34:39;8.53;;;4.57;;
38615;SDS011;24370;51.986;4.666;2024-01-30T09:37:04;8.63;;;5.10;;
38615;SDS011;24370;51.986;4.666;2024-01-30T09:39:30;15.50;;;4.72;;
38615;SDS011;24370;51.986;4.666;2024-01-30T09:41:57;7.45;;;4.53;;
38615;SDS011;24370;51.986;4.666;2024-01-30T09:44:33;12.93;;;4.57;;
38615;SDS011;24370;51.986;4.666;2024-01-30T09:47:01;14.77;;;5.47;;
38615;SDS011;24370;51.986;4.666;2024-01-30T09:49:30;10.57;;;5.10;;
38615;SDS011;24370;51.986;4.666;2024-01-30T09:51:58;8.70;;;4.47;;
38615;SDS011;24370;51.986;4.666;2024-01-30T09:54:23;9.90;;;4.10;;
38615;SDS011;24370;51.986;4.666;2024-01-30T09:56:49;12.57;;;4.93;;
38615;SDS011;24370;51.986;4.666;2024-01-30T09:59:14;15.97;;;4.67;;
38615;SDS011;24370;51.986;4.666;2024-01-30T10:01:40;12.80;;;4.40;;
38615;SDS011;24370;51.986;4.666;2024-01-30T10:04:07;7.47;;;4.00;;
38615;SDS011;24370;51.986;4.666;2024-01-30T10:06:32;11.77;;;3.33;;
38615;SDS011;24370;51.986;4.666;2024-01-30T10:08:59;5.43;;;2.97;;
38615;SDS011;24370;51.986;4.666;2024-01-30T10:11:24;11.17;;;3.43;;
38615;SDS011;24370;51.986;4.666;2024-01-30T10:13:50;10.87;;;3.67;;
38615;SDS011;24370;51.986;4.666;2024-01-30T10:16:15;5.83;;;2.47;;
38615;SDS011;24370;51.986;4.666;2024-01-30T10:18:41;4.70;;;2.63;;
38615;SDS011;24370;51.986;4.666;2024-01-30T10:21:08;4.53;;;2.83;;
38615;SDS011;24370;51.986;4.666;2024-01-30T10:23:33;4.80;;;2.60;;
38615;SDS011;24370;51.986;4.666;2024-01-30T10:25:59;6.00;;;3.20;;
38615;SDS011;24370;51.986;4.666;2024-01-30T10:28:26;8.23;;;3.10;;
38615;SDS011;24370;51.986;4.666;2024-01-30T10:31:00;8.60;;;2.23;;
38615;SDS011;24370;51.986;4.666;2024-01-30T10:33:31;8.33;;;2.73;;
38615;SDS011;24370;51.986;4.666;2024-01-30T10:36:00;3.10;;;1.50;;
38615;SDS011;24370;51.986;4.666;2024-01-30T10:38:30;3.73;;;1.00;;
38615;SDS011;24370;51.986;4.666;2024-01-30T10:41:00;5.40;;;2.27;;
38615;SDS011;24370;51.986;4.666;2024-01-30T10:46:21;4.63;;;1.90;;
38615;SDS011;24370;51.986;4.666;2024-01-30T10:48:50;1.57;;;1.03;;
38615;SDS011;24370;51.986;4.666;2024-01-30T10:51:25;1.90;;;1.47;;
38615;SDS011;24370;51.986;4.666;2024-01-30T10:53:52;4.40;;;1.50;;
38615;SDS011;24370;51.986;4.666;2024-01-30T10:56:18;3.30;;;1.60;;
38615;SDS011;24370;51.986;4.666;2024-01-30T10:58:46;4.83;;;2.50;;
38615;SDS011;24370;51.986;4.666;2024-01-30T11:01:14;3.83;;;1.67;;
38615;SDS011;24370;51.986;4.666;2024-01-30T11:03:40;6.27;;;1.80;;
38615;SDS011;24370;51.986;4.666;2024-01-30T11:06:10;2.07;;;1.10;;
38615;SDS011;24370;51.986;4.666;2024-01-30T11:08:37;8.20;;;1.70;;
38615;SDS011;24370;51.986;4.666;2024-01-30T11:11:02;3.63;;;1.60;;
38615;SDS011;24370;51.986;4.666;2024-01-30T11:13:34;1.60;;;1.07;;
38615;SDS011;24370;51.986;4.666;2024-01-30T11:16:03;1.03;;;0.73;;
38615;SDS011;24370;51.986;4.666;2024-01-30T11:18:30;5.53;;;1.10;;
38615;SDS011;24370;51.986;4.666;2024-01-30T11:20:57;5.13;;;1.33;;
38615;SDS011;24370;51.986;4.666;2024-01-30T11:23:23;3.47;;;0.90;;
38615;SDS011;24370;51.986;4.666;2024-01-30T11:25:55;2.37;;;1.23;;
38615;SDS011;24370;51.986;4.666;2024-01-30T11:28:24;2.07;;;0.50;;
38615;SDS011;24370;51.986;4.666;2024-01-30T11:30:49;11.27;;;1.77;;
38615;SDS011;24370;51.986;4.666;2024-01-30T11:33:30;4.30;;;0.80;;
38615;SDS011;24370;51.986;4.666;2024-01-30T11:35:57;2.00;;;0.80;;
38615;SDS011;24370;51.986;4.666;2024-01-30T11:38:25;5.30;;;0.57;;
38615;SDS011;24370;51.986;4.666;2024-01-30T11:40:51;4.53;;;0.70;;
38615;SDS011;24370;51.986;4.666;2024-01-30T11:43:17;2.93;;;1.00;;
38615;SDS011;24370;51.986;4.666;2024-01-30T11:45:44;8.07;;;0.80;;
38615;SDS011;24370;51.986;4.666;2024-01-30T11:48:11;7.73;;;1.33;;
38615;SDS011;24370;51.986;4.666;2024-01-30T11:50:37;2.27;;;0.67;;
38615;SDS011;24370;51.986;4.666;2024-01-30T11:53:04;1.90;;;0.40;;
38615;SDS011;24370;51.986;4.666;2024-01-30T11:55:30;2.67;;;0.70;;
38615;SDS011;24370;51.986;4.666;2024-01-30T11:57:59;2.53;;;0.60;;
38615;SDS011;24370;51.986;4.666;2024-01-30T12:00:24;1.40;;;1.07;;
38615;SDS011;24370;51.986;4.666;2024-01-30T12:02:51;1.70;;;0.80;;
38615;SDS011;24370;51.986;4.666;2024-01-30T12:05:20;1.17;;;0.50;;
38615;SDS011;24370;51.986;4.666;2024-01-30T12:07:46;2.07;;;0.80;;
38615;SDS011;24370;51.986;4.666;2024-01-30T12:10:12;6.03;;;0.60;;
38615;SDS011;24370;51.986;4.666;2024-01-30T12:12:39;4.23;;;0.63;;
38615;SDS011;24370;51.986;4.666;2024-01-30T12:15:06;2.47;;;0.37;;
38615;SDS011;24370;51.986;4.666;2024-01-30T12:17:32;3.63;;;1.57;;
38615;SDS011;24370;51.986;4.666;2024-01-30T12:20:09;3.33;;;0.53;;
38615;SDS011;24370;51.986;4.666;2024-01-30T12:22:44;6.80;;;0.40;;
38615;SDS011;24370;51.986;4.666;2024-01-30T12:25:11;5.05;;;0.55;;
38615;SDS011;24370;51.986;4.666;2024-01-30T12:27:38;7.90;;;0.67;;
38615;SDS011;24370;51.986;4.666;2024-01-30T12:30:07;2.20;;;0.70;;
38615;SDS011;24370;51.986;4.666;2024-01-30T12:32:34;9.23;;;1.63;;
38615;SDS011;24370;51.986;4.666;2024-01-30T12:35:01;5.73;;;0.53;;
38615;SDS011;24370;51.986;4.666;2024-01-30T12:37:27;3.60;;;0.50;;
38615;SDS011;24370;51.986;4.666;2024-01-30T12:39:54;3.00;;;0.60;;
38615;SDS011;24370;51.986;4.666;2024-01-30T12:42:20;3.33;;;0.53;;
38615;SDS011;24370;51.986;4.666;2024-01-30T12:44:48;1.10;;;0.80;;
38615;SDS011;24370;51.986;4.666;2024-01-30T12:47:14;0.70;;;0.70;;
38615;SDS011;24370;51.986;4.666;2024-01-30T12:49:41;5.20;;;0.70;;
38615;SDS011;24370;51.986;4.666;2024-01-30T12:52:09;1.70;;;0.90;;
38615;SDS011;24370;51.986;4.666;2024-01-30T12:54:35;2.77;;;0.87;;
38615;SDS011;24370;51.986;4.666;2024-01-30T12:57:00;5.73;;;1.10;;
38615;SDS011;24370;51.986;4.666;2024-01-30T12:59:26;2.83;;;0.77;;
38615;SDS011;24370;51.986;4.666;2024-01-30T13:01:51;8.93;;;1.63;;
38615;SDS011;24370;51.986;4.666;2024-01-30T13:04:16;3.40;;;0.80;;
38615;SDS011;24370;51.986;4.666;2024-01-30T13:06:42;4.13;;;0.97;;
38615;SDS011;24370;51.986;4.666;2024-01-30T13:09:07;3.80;;;1.70;;
38615;SDS011;24370;51.986;4.666;2024-01-30T13:11:33;1.27;;;0.70;;
38615;SDS011;24370;51.986;4.666;2024-01-30T13:13:59;5.27;;;0.60;;
38615;SDS011;24370;51.986;4.666;2024-01-30T13:16:25;9.17;;;1.57;;
38615;SDS011;24370;51.986;4.666;2024-01-30T13:18:51;12.77;;;1.43;;
38615;SDS011;24370;51.986;4.666;2024-01-30T13:21:16;11.10;;;1.93;;
38615;SDS011;24370;51.986;4.666;2024-01-30T13:23:42;4.13;;;1.33;;
38615;SDS011;24370;51.986;4.666;2024-01-30T13:26:08;3.60;;;0.97;;
38615;SDS011;24370;51.986;4.666;2024-01-30T13:28:33;1.13;;;0.90;;
38615;SDS011;24370;51.986;4.666;2024-01-30T13:30:58;4.83;;;1.23;;
38615;SDS011;24370;51.986;4.666;2024-01-30T13:33:24;6.60;;;0.97;;
38615;SDS011;24370;51.986;4.666;2024-01-30T13:35:49;3.17;;;1.03;;
38615;SDS011;24370;51.986;4.666;2024-01-30T13:38:15;6.70;;;1.27;;
38615;SDS011;24370;51.986;4.666;2024-01-30T13:40:41;4.67;;;1.27;;
38615;SDS011;24370;51.986;4.666;2024-01-30T13:43:06;2.03;;;0.90;;
38615;SDS011;24370;51.986;4.666;2024-01-30T13:45:31;1.93;;;0.70;;
38615;SDS011;24370;51.986;4.666;2024-01-30T13:47:57;3.83;;;0.97;;
38615;SDS011;24370;51.986;4.666;2024-01-30T13:50:24;1.57;;;0.80;;
38615;SDS011;24370;51.986;4.666;2024-01-30T13:52:49;4.80;;;1.10;;
38615;SDS011;24370;51.986;4.666;2024-01-30T13:55:14;1.77;;;1.20;;
38615;SDS011;24370;51.986;4.666;2024-01-30T13:57:40;6.07;;;1.17;;
38615;SDS011;24370;51.986;4.666;2024-01-30T14:00:05;6.57;;;1.47;;
38615;SDS011;24370;51.986;4.666;2024-01-30T14:02:31;1.83;;;1.00;;
38615;SDS011;24370;51.986;4.666;2024-01-30T14:04:57;4.27;;;1.07;;
38615;SDS011;24370;51.986;4.666;2024-01-30T14:07:22;1.67;;;0.90;;
38615;SDS011;24370;51.986;4.666;2024-01-30T14:09:48;3.10;;;1.17;;
38615;SDS011;24370;51.986;4.666;2024-01-30T14:12:14;0.87;;;0.70;;
38615;SDS011;24370;51.986;4.666;2024-01-30T14:14:39;5.20;;;1.40;;
38615;SDS011;24370;51.986;4.666;2024-01-30T14:17:05;2.20;;;1.27;;
38615;SDS011;24370;51.986;4.666;2024-01-30T14:19:32;2.50;;;0.90;;
38615;SDS011;24370;51.986;4.666;2024-01-30T14:21:57;4.90;;;1.43;;
38615;SDS011;24370;51.986;4.666;2024-01-30T14:24:23;3.27;;;1.47;;
38615;SDS011;24370;51.986;4.666;2024-01-30T14:26:48;2.93;;;1.50;;
38615;SDS011;24370;51.986;4.666;2024-01-30T14:29:14;3.33;;;1.73;;
38615;SDS011;24370;51.986;4.666;2024-01-30T14:31:39;8.60;;;1.60;;
38615;SDS011;24370;51.986;4.666;2024-01-30T14:34:05;5.03;;;1.60;;